sensor_id;sensor_type;location;lat;lon;timestamp;P1;durP1;ratioP1;P2;durP2;ratioP2
430;SDS011;202;48.764;9.172;2022-08-07T00:02:26;1.70;;;1.10;;
430;SDS011;202;48.764;9.172;2022-08-07T00:04:54;2.20;;;1.13;;
430;SDS011;202;48.764;9.172;2022-08-07T00:07:21;2.93;;;1.37;;
430;SDS011;202;48.764;9.172;2022-08-07T00:09:48;3.33;;;1.80;;
430;SDS011;202;48.764;9.172;2022-08-07T00:12:15;2.90;;;1.70;;
430;SDS011;202;48.764;9.172;2022-08-07T00:14:45;2.27;;;1.43;;
430;SDS011;202;48.764;9.172;2022-08-07T00:17:12;3.03;;;1.40;;
430;SDS011;202;48.764;9.172;2022-08-07T00:19:42;2.60;;;1.50;;
430;SDS011;202;48.764;9.172;2022-08-07T00:22:12;2.30;;;1.50;;
430;SDS011;202;48.764;9.172;2022-08-07T00:24:43;2.37;;;1.40;;
430;SDS011;202;48.764;9.172;2022-08-07T00:27:10;2.30;;;1.33;;
430;SDS011;202;48.764;9.172;2022-08-07T00:29:43;1.90;;;1.20;;
430;SDS011;202;48.764;9.172;2022-08-07T00:32:12;2.40;;;1.30;;
430;SDS011;202;48.764;9.172;2022-08-07T00:34:42;3.57;;;2.03;;
430;SDS011;202;48.764;9.172;2022-08-07T00:37:17;2.20;;;1.50;;
430;SDS011;202;48.764;9.172;2022-08-07T00:39:53;3.60;;;1.23;;
430;SDS011;202;48.764;9.172;2022-08-07T00:42:31;2.83;;;1.70;;
430;SDS011;202;48.764;9.172;2022-08-07T00:45:08;2.07;;;1.30;;
430;SDS011;202;48.764;9.172;2022-08-07T00:47:40;2.70;;;1.57;;
430;SDS011;202;48.764;9.172;2022-08-07T00:50:10;2.70;;;1.70;;
430;SDS011;202;48.764;9.172;2022-08-07T00:52:41;3.37;;;1.50;;
430;SDS011;202;48.764;9.172;2022-08-07T00:55:11;2.40;;;1.60;;
430;SDS011;202;48.764;9.172;2022-08-07T00:57:41;2.37;;;1.30;;
430;SDS011;202;48.764;9.172;2022-08-07T01:00:19;2.60;;;1.60;;
430;SDS011;202;48.764;9.172;2022-08-07T01:02:48;3.40;;;1.33;;
430;SDS011;202;48.764;9.172;2022-08-07T01:05:19;4.23;;;1.80;;
430;SDS011;202;48.764;9.172;2022-08-07T01:07:56;3.40;;;1.67;;
430;SDS011;202;48.764;9.172;2022-08-07T01:10:28;2.27;;;1.17;;
430;SDS011;202;48.764;9.172;2022-08-07T01:12:57;3.53;;;1.50;;
430;SDS011;202;48.764;9.172;2022-08-07T01:15:26;3.13;;;1.50;;
430;SDS011;202;48.764;9.172;2022-08-07T01:17:56;2.40;;;1.50;;
430;SDS011;202;48.764;9.172;2022-08-07T01:20:25;2.23;;;1.30;;
430;SDS011;202;48.764;9.172;2022-08-07T01:23:02;2.47;;;1.40;;
430;SDS011;202;48.764;9.172;2022-08-07T01:25:36;3.87;;;1.43;;
430;SDS011;202;48.764;9.172;2022-08-07T01:28:04;3.37;;;1.90;;
430;SDS011;202;48.764;9.172;2022-08-07T01:30:35;2.93;;;1.50;;
430;SDS011;202;48.764;9.172;2022-08-07T01:33:03;2.40;;;1.50;;
430;SDS011;202;48.764;9.172;2022-08-07T01:35:30;2.17;;;1.40;;
430;SDS011;202;48.764;9.172;2022-08-07T01:37:59;2.87;;;1.70;;
430;SDS011;202;48.764;9.172;2022-08-07T01:40:29;1.80;;;1.43;;
430;SDS011;202;48.764;9.172;2022-08-07T01:43:01;2.60;;;1.70;;
430;SDS011;202;48.764;9.172;2022-08-07T01:45:32;2.97;;;1.60;;
430;SDS011;202;48.764;9.172;2022-08-07T01:48:01;3.83;;;1.90;;
430;SDS011;202;48.764;9.172;2022-08-07T01:50:33;3.03;;;1.70;;
430;SDS011;202;48.764;9.172;2022-08-07T01:53:03;2.23;;;1.60;;
430;SDS011;202;48.764;9.172;2022-08-07T01:55:35;2.70;;;1.50;;
430;SDS011;202;48.764;9.172;2022-08-07T01:58:10;3.23;;;1.70;;
430;SDS011;202;48.764;9.172;2022-08-07T02:00:48;2.50;;;1.80;;
430;SDS011;202;48.764;9.172;2022-08-07T02:03:27;2.87;;;1.50;;
430;SDS011;202;48.764;9.172;2022-08-07T02:05:59;3.23;;;1.40;;
430;SDS011;202;48.764;9.172;2022-08-07T02:08:36;3.20;;;1.50;;
430;SDS011;202;48.764;9.172;2022-08-07T02:11:07;5.97;;;1.80;;
430;SDS011;202;48.764;9.172;2022-08-07T02:13:35;2.77;;;1.60;;
430;SDS011;202;48.764;9.172;2022-08-07T02:16:07;2.70;;;1.30;;
430;SDS011;202;48.764;9.172;2022-08-07T02:18:38;4.23;;;1.30;;
430;SDS011;202;48.764;9.172;2022-08-07T02:21:09;2.20;;;1.70;;
430;SDS011;202;48.764;9.172;2022-08-07T02:23:38;4.67;;;1.37;;
430;SDS011;202;48.764;9.172;2022-08-07T02:26:09;2.77;;;1.40;;
430;SDS011;202;48.764;9.172;2022-08-07T02:28:38;1.87;;;1.10;;
430;SDS011;202;48.764;9.172;2022-08-07T02:31:06;2.07;;;1.50;;
430;SDS011;202;48.764;9.172;2022-08-07T02:33:37;3.27;;;1.20;;
430;SDS011;202;48.764;9.172;2022-08-07T02:36:08;3.23;;;1.40;;
430;SDS011;202;48.764;9.172;2022-08-07T02:38:47;4.00;;;1.63;;
430;SDS011;202;48.764;9.172;2022-08-07T02:41:16;2.10;;;1.50;;
430;SDS011;202;48.764;9.172;2022-08-07T02:43:45;5.03;;;1.80;;
430;SDS011;202;48.764;9.172;2022-08-07T02:46:15;2.00;;;1.40;;
430;SDS011;202;48.764;9.172;2022-08-07T02:48:45;3.17;;;1.60;;
430;SDS011;202;48.764;9.172;2022-08-07T02:51:15;3.17;;;1.40;;
430;SDS011;202;48.764;9.172;2022-08-07T02:53:45;2.30;;;1.20;;
430;SDS011;202;48.764;9.172;2022-08-07T02:56:21;2.90;;;1.27;;
430;SDS011;202;48.764;9.172;2022-08-07T02:58:54;1.93;;;1.43;;
430;SDS011;202;48.764;9.172;2022-08-07T03:01:33;2.97;;;1.80;;
430;SDS011;202;48.764;9.172;2022-08-07T03:04:08;3.77;;;2.13;;
430;SDS011;202;48.764;9.172;2022-08-07T03:06:36;3.53;;;1.63;;
430;SDS011;202;48.764;9.172;2022-08-07T03:09:06;2.00;;;1.40;;
430;SDS011;202;48.764;9.172;2022-08-07T03:11:40;2.37;;;1.90;;
430;SDS011;202;48.764;9.172;2022-08-07T03:14:08;2.07;;;1.43;;
430;SDS011;202;48.764;9.172;2022-08-07T03:16:35;2.53;;;1.80;;
430;SDS011;202;48.764;9.172;2022-08-07T03:19:02;3.27;;;1.80;;
430;SDS011;202;48.764;9.172;2022-08-07T03:21:29;2.43;;;1.60;;
430;SDS011;202;48.764;9.172;2022-08-07T03:23:57;4.17;;;1.50;;
430;SDS011;202;48.764;9.172;2022-08-07T03:26:24;2.33;;;1.53;;
430;SDS011;202;48.764;9.172;2022-08-07T03:28:55;2.60;;;1.53;;
430;SDS011;202;48.764;9.172;2022-08-07T03:31:25;2.47;;;1.30;;
430;SDS011;202;48.764;9.172;2022-08-07T03:33:55;3.30;;;1.90;;
430;SDS011;202;48.764;9.172;2022-08-07T03:36:25;2.27;;;1.83;;
430;SDS011;202;48.764;9.172;2022-08-07T03:38:54;2.10;;;1.37;;
430;SDS011;202;48.764;9.172;2022-08-07T03:41:25;3.07;;;1.80;;
430;SDS011;202;48.764;9.172;2022-08-07T03:43:54;3.93;;;1.40;;
430;SDS011;202;48.764;9.172;2022-08-07T03:46:21;2.47;;;1.90;;
430;SDS011;202;48.764;9.172;2022-08-07T03:48:50;2.53;;;1.30;;
430;SDS011;202;48.764;9.172;2022-08-07T03:51:18;2.50;;;1.40;;
430;SDS011;202;48.764;9.172;2022-08-07T03:53:47;3.00;;;1.53;;
430;SDS011;202;48.764;9.172;2022-08-07T03:56:16;3.47;;;1.90;;
430;SDS011;202;48.764;9.172;2022-08-07T03:58:46;3.70;;;2.00;;
430;SDS011;202;48.764;9.172;2022-08-07T04:01:22;2.37;;;1.20;;
430;SDS011;202;48.764;9.172;2022-08-07T04:03:52;2.13;;;1.60;;
430;SDS011;202;48.764;9.172;2022-08-07T04:06:20;2.50;;;1.57;;
430;SDS011;202;48.764;9.172;2022-08-07T04:08:50;2.70;;;1.70;;
430;SDS011;202;48.764;9.172;2022-08-07T04:11:19;3.20;;;1.83;;
430;SDS011;202;48.764;9.172;2022-08-07T04:13:48;2.97;;;1.43;;
430;SDS011;202;48.764;9.172;2022-08-07T04:16:18;3.17;;;1.30;;
430;SDS011;202;48.764;9.172;2022-08-07T04:18:45;2.30;;;1.33;;
430;SDS011;202;48.764;9.172;2022-08-07T04:21:16;2.63;;;1.53;;
430;SDS011;202;48.764;9.172;2022-08-07T04:23:43;2.37;;;1.87;;
430;SDS011;202;48.764;9.172;2022-08-07T04:26:11;2.00;;;1.20;;
430;SDS011;202;48.764;9.172;2022-08-07T04:28:39;2.10;;;1.40;;
430;SDS011;202;48.764;9.172;2022-08-07T04:31:06;2.87;;;1.73;;
430;SDS011;202;48.764;9.172;2022-08-07T04:33:35;1.80;;;1.27;;
430;SDS011;202;48.764;9.172;2022-08-07T04:36:03;2.03;;;1.40;;
430;SDS011;202;48.764;9.172;2022-08-07T04:38:33;2.47;;;1.97;;
430;SDS011;202;48.764;9.172;2022-08-07T04:41:02;2.43;;;1.33;;
430;SDS011;202;48.764;9.172;2022-08-07T04:43:32;1.90;;;1.30;;
430;SDS011;202;48.764;9.172;2022-08-07T04:46:02;3.43;;;1.70;;
430;SDS011;202;48.764;9.172;2022-08-07T04:48:38;2.70;;;2.00;;
430;SDS011;202;48.764;9.172;2022-08-07T04:51:15;2.40;;;1.60;;
430;SDS011;202;48.764;9.172;2022-08-07T04:53:52;1.80;;;1.27;;
430;SDS011;202;48.764;9.172;2022-08-07T04:56:27;3.30;;;1.57;;
430;SDS011;202;48.764;9.172;2022-08-07T04:59:05;2.27;;;1.50;;
430;SDS011;202;48.764;9.172;2022-08-07T05:01:39;3.50;;;1.70;;
430;SDS011;202;48.764;9.172;2022-08-07T05:04:14;2.40;;;1.43;;
430;SDS011;202;48.764;9.172;2022-08-07T05:06:47;2.27;;;1.47;;
430;SDS011;202;48.764;9.172;2022-08-07T05:09:26;2.37;;;1.70;;
430;SDS011;202;48.764;9.172;2022-08-07T05:12:02;2.00;;;1.17;;
430;SDS011;202;48.764;9.172;2022-08-07T05:14:35;5.23;;;1.80;;
430;SDS011;202;48.764;9.172;2022-08-07T05:17:11;1.90;;;1.30;;
430;SDS011;202;48.764;9.172;2022-08-07T05:19:43;4.87;;;2.30;;
430;SDS011;202;48.764;9.172;2022-08-07T05:22:19;2.97;;;2.33;;
430;SDS011;202;48.764;9.172;2022-08-07T05:24:51;2.77;;;1.67;;
430;SDS011;202;48.764;9.172;2022-08-07T05:27:21;4.37;;;2.10;;
430;SDS011;202;48.764;9.172;2022-08-07T05:29:49;2.47;;;2.00;;
430;SDS011;202;48.764;9.172;2022-08-07T05:32:21;2.60;;;2.00;;
430;SDS011;202;48.764;9.172;2022-08-07T05:34:52;3.07;;;2.47;;
430;SDS011;202;48.764;9.172;2022-08-07T05:37:21;2.80;;;2.57;;
430;SDS011;202;48.764;9.172;2022-08-07T05:39:53;2.80;;;2.50;;
430;SDS011;202;48.764;9.172;2022-08-07T05:42:21;4.50;;;2.80;;
430;SDS011;202;48.764;9.172;2022-08-07T05:44:50;4.07;;;2.97;;
430;SDS011;202;48.764;9.172;2022-08-07T05:47:19;5.70;;;3.13;;
430;SDS011;202;48.764;9.172;2022-08-07T05:49:47;3.90;;;2.50;;
430;SDS011;202;48.764;9.172;2022-08-07T05:52:17;3.07;;;2.70;;
430;SDS011;202;48.764;9.172;2022-08-07T05:54:44;3.60;;;2.90;;
430;SDS011;202;48.764;9.172;2022-08-07T05:57:11;4.13;;;3.60;;
430;SDS011;202;48.764;9.172;2022-08-07T05:59:41;3.20;;;3.00;;
430;SDS011;202;48.764;9.172;2022-08-07T06:02:12;3.50;;;3.37;;
430;SDS011;202;48.764;9.172;2022-08-07T06:04:43;3.00;;;2.70;;
430;SDS011;202;48.764;9.172;2022-08-07T06:07:14;4.00;;;3.40;;
430;SDS011;202;48.764;9.172;2022-08-07T06:09:42;3.90;;;3.17;;
430;SDS011;202;48.764;9.172;2022-08-07T06:12:10;4.03;;;3.30;;
430;SDS011;202;48.764;9.172;2022-08-07T06:14:37;4.03;;;3.50;;
430;SDS011;202;48.764;9.172;2022-08-07T06:17:09;3.53;;;2.60;;
430;SDS011;202;48.764;9.172;2022-08-07T06:19:39;3.73;;;2.70;;
430;SDS011;202;48.764;9.172;2022-08-07T06:22:08;3.20;;;3.00;;
430;SDS011;202;48.764;9.172;2022-08-07T06:24:36;3.57;;;3.03;;
430;SDS011;202;48.764;9.172;2022-08-07T06:27:04;3.33;;;3.13;;
430;SDS011;202;48.764;9.172;2022-08-07T06:29:31;4.07;;;3.30;;
430;SDS011;202;48.764;9.172;2022-08-07T06:31:59;3.80;;;3.20;;
430;SDS011;202;48.764;9.172;2022-08-07T06:34:26;4.00;;;3.80;;
430;SDS011;202;48.764;9.172;2022-08-07T06:36:53;5.20;;;3.50;;
430;SDS011;202;48.764;9.172;2022-08-07T06:39:21;3.70;;;3.20;;
430;SDS011;202;48.764;9.172;2022-08-07T06:41:52;3.60;;;3.30;;
430;SDS011;202;48.764;9.172;2022-08-07T06:44:25;5.70;;;3.30;;
430;SDS011;202;48.764;9.172;2022-08-07T06:46:53;3.80;;;3.30;;
430;SDS011;202;48.764;9.172;2022-08-07T06:49:21;3.37;;;3.23;;
430;SDS011;202;48.764;9.172;2022-08-07T06:51:48;3.43;;;3.30;;
430;SDS011;202;48.764;9.172;2022-08-07T06:54:16;4.97;;;3.53;;
430;SDS011;202;48.764;9.172;2022-08-07T06:56:46;3.50;;;3.30;;
430;SDS011;202;48.764;9.172;2022-08-07T06:59:15;3.60;;;3.40;;
430;SDS011;202;48.764;9.172;2022-08-07T07:01:49;4.20;;;3.67;;
430;SDS011;202;48.764;9.172;2022-08-07T07:04:18;3.77;;;3.57;;
430;SDS011;202;48.764;9.172;2022-08-07T07:06:46;3.80;;;3.40;;
430;SDS011;202;48.764;9.172;2022-08-07T07:09:18;3.80;;;3.47;;
430;SDS011;202;48.764;9.172;2022-08-07T07:11:50;3.80;;;3.20;;
430;SDS011;202;48.764;9.172;2022-08-07T07:14:24;4.40;;;3.33;;
430;SDS011;202;48.764;9.172;2022-08-07T07:16:56;3.33;;;3.10;;
430;SDS011;202;48.764;9.172;2022-08-07T07:19:28;4.47;;;4.10;;
430;SDS011;202;48.764;9.172;2022-08-07T07:21:59;3.63;;;3.40;;
430;SDS011;202;48.764;9.172;2022-08-07T07:24:27;4.07;;;2.70;;
430;SDS011;202;48.764;9.172;2022-08-07T07:26:55;3.50;;;2.90;;
430;SDS011;202;48.764;9.172;2022-08-07T07:29:26;4.17;;;3.80;;
430;SDS011;202;48.764;9.172;2022-08-07T07:32:02;3.33;;;2.77;;
430;SDS011;202;48.764;9.172;2022-08-07T07:34:33;3.80;;;2.40;;
430;SDS011;202;48.764;9.172;2022-08-07T07:37:09;4.57;;;3.80;;
430;SDS011;202;48.764;9.172;2022-08-07T07:39:40;3.33;;;3.03;;
430;SDS011;202;48.764;9.172;2022-08-07T07:42:08;3.80;;;2.40;;
430;SDS011;202;48.764;9.172;2022-08-07T07:44:40;3.10;;;2.60;;
430;SDS011;202;48.764;9.172;2022-08-07T07:47:13;2.47;;;2.00;;
430;SDS011;202;48.764;9.172;2022-08-07T07:49:42;2.77;;;2.30;;
430;SDS011;202;48.764;9.172;2022-08-07T07:52:13;2.37;;;2.20;;
430;SDS011;202;48.764;9.172;2022-08-07T07:54:43;2.87;;;2.23;;
430;SDS011;202;48.764;9.172;2022-08-07T07:57:13;2.43;;;1.93;;
430;SDS011;202;48.764;9.172;2022-08-07T07:59:42;3.17;;;1.87;;
430;SDS011;202;48.764;9.172;2022-08-07T08:02:15;2.43;;;2.10;;
430;SDS011;202;48.764;9.172;2022-08-07T08:04:47;2.57;;;2.37;;
430;SDS011;202;48.764;9.172;2022-08-07T08:07:14;2.40;;;1.90;;
430;SDS011;202;48.764;9.172;2022-08-07T08:09:42;3.50;;;1.93;;
430;SDS011;202;48.764;9.172;2022-08-07T08:12:11;2.93;;;2.00;;
430;SDS011;202;48.764;9.172;2022-08-07T08:14:39;2.10;;;1.60;;
430;SDS011;202;48.764;9.172;2022-08-07T08:17:17;2.70;;;1.40;;
430;SDS011;202;48.764;9.172;2022-08-07T08:19:46;3.87;;;1.67;;
430;SDS011;202;48.764;9.172;2022-08-07T08:22:16;3.37;;;1.60;;
430;SDS011;202;48.764;9.172;2022-08-07T08:25:04;1.80;;;1.40;;
430;SDS011;202;48.764;9.172;2022-08-07T08:27:52;2.87;;;1.50;;
430;SDS011;202;48.764;9.172;2022-08-07T08:30:22;2.83;;;1.23;;
430;SDS011;202;48.764;9.172;2022-08-07T08:32:58;2.03;;;1.17;;
430;SDS011;202;48.764;9.172;2022-08-07T08:35:27;1.90;;;1.10;;
430;SDS011;202;48.764;9.172;2022-08-07T08:37:58;2.10;;;1.50;;
430;SDS011;202;48.764;9.172;2022-08-07T08:40:29;2.10;;;1.40;;
430;SDS011;202;48.764;9.172;2022-08-07T08:43:02;2.03;;;1.50;;
430;SDS011;202;48.764;9.172;2022-08-07T08:45:36;2.17;;;1.23;;
430;SDS011;202;48.764;9.172;2022-08-07T08:48:15;1.80;;;1.10;;
430;SDS011;202;48.764;9.172;2022-08-07T08:50:51;2.50;;;1.47;;
430;SDS011;202;48.764;9.172;2022-08-07T08:53:24;2.53;;;1.20;;
430;SDS011;202;48.764;9.172;2022-08-07T08:55:58;3.30;;;1.63;;
430;SDS011;202;48.764;9.172;2022-08-07T08:58:33;2.07;;;1.30;;
430;SDS011;202;48.764;9.172;2022-08-07T09:01:08;1.67;;;1.40;;
430;SDS011;202;48.764;9.172;2022-08-07T09:03:47;2.00;;;1.60;;
430;SDS011;202;48.764;9.172;2022-08-07T09:06:31;2.10;;;1.30;;
430;SDS011;202;48.764;9.172;2022-08-07T09:09:05;1.83;;;1.40;;
430;SDS011;202;48.764;9.172;2022-08-07T09:11:44;2.33;;;1.30;;
430;SDS011;202;48.764;9.172;2022-08-07T09:14:19;3.10;;;1.10;;
430;SDS011;202;48.764;9.172;2022-08-07T09:16:59;2.27;;;1.30;;
430;SDS011;202;48.764;9.172;2022-08-07T09:19:39;3.80;;;1.40;;
430;SDS011;202;48.764;9.172;2022-08-07T09:22:21;1.70;;;1.00;;
430;SDS011;202;48.764;9.172;2022-08-07T09:25:06;1.73;;;1.13;;
430;SDS011;202;48.764;9.172;2022-08-07T09:27:39;2.17;;;1.00;;
430;SDS011;202;48.764;9.172;2022-08-07T09:30:11;1.70;;;0.90;;
430;SDS011;202;48.764;9.172;2022-08-07T09:35:37;2.00;;;1.30;;
430;SDS011;202;48.764;9.172;2022-08-07T09:38:12;1.77;;;1.27;;
430;SDS011;202;48.764;9.172;2022-08-07T09:40:53;3.30;;;1.17;;
430;SDS011;202;48.764;9.172;2022-08-07T09:43:33;1.83;;;1.40;;
430;SDS011;202;48.764;9.172;2022-08-07T09:46:17;2.13;;;1.00;;
430;SDS011;202;48.764;9.172;2022-08-07T09:48:57;2.07;;;1.00;;
430;SDS011;202;48.764;9.172;2022-08-07T09:51:42;2.10;;;1.30;;
430;SDS011;202;48.764;9.172;2022-08-07T09:54:20;1.43;;;0.90;;
430;SDS011;202;48.764;9.172;2022-08-07T09:56:57;2.13;;;1.10;;
430;SDS011;202;48.764;9.172;2022-08-07T09:59:57;2.00;;;1.20;;
430;SDS011;202;48.764;9.172;2022-08-07T10:12:14;2.70;;;1.07;;
430;SDS011;202;48.764;9.172;2022-08-07T10:15:08;2.10;;;1.20;;
430;SDS011;202;48.764;9.172;2022-08-07T10:17:51;1.60;;;0.97;;
430;SDS011;202;48.764;9.172;2022-08-07T10:20:44;1.73;;;0.80;;
430;SDS011;202;48.764;9.172;2022-08-07T10:23:30;1.70;;;0.90;;
430;SDS011;202;48.764;9.172;2022-08-07T10:26:13;2.90;;;1.10;;
430;SDS011;202;48.764;9.172;2022-08-07T10:28:57;4.03;;;1.13;;
430;SDS011;202;48.764;9.172;2022-08-07T10:34:29;2.87;;;1.40;;
430;SDS011;202;48.764;9.172;2022-08-07T10:37:12;3.77;;;0.90;;
430;SDS011;202;48.764;9.172;2022-08-07T10:39:54;1.80;;;0.80;;
430;SDS011;202;48.764;9.172;2022-08-07T10:42:30;2.53;;;1.20;;
430;SDS011;202;48.764;9.172;2022-08-07T10:45:10;2.40;;;1.27;;
430;SDS011;202;48.764;9.172;2022-08-07T10:47:45;1.77;;;1.07;;
430;SDS011;202;48.764;9.172;2022-08-07T10:50:25;2.43;;;1.00;;
430;SDS011;202;48.764;9.172;2022-08-07T10:53:02;2.30;;;1.17;;
430;SDS011;202;48.764;9.172;2022-08-07T10:55:39;1.40;;;0.80;;
430;SDS011;202;48.764;9.172;2022-08-07T10:58:14;2.03;;;1.10;;
430;SDS011;202;48.764;9.172;2022-08-07T11:00:48;2.97;;;1.10;;
430;SDS011;202;48.764;9.172;2022-08-07T11:03:25;2.03;;;1.10;;
430;SDS011;202;48.764;9.172;2022-08-07T11:06:04;1.90;;;0.93;;
430;SDS011;202;48.764;9.172;2022-08-07T11:08:38;2.97;;;1.20;;
430;SDS011;202;48.764;9.172;2022-08-07T11:11:14;1.80;;;1.13;;
430;SDS011;202;48.764;9.172;2022-08-07T11:13:50;2.40;;;1.03;;
430;SDS011;202;48.764;9.172;2022-08-07T11:16:22;1.60;;;0.90;;
430;SDS011;202;48.764;9.172;2022-08-07T11:18:53;3.20;;;1.10;;
430;SDS011;202;48.764;9.172;2022-08-07T11:21:31;3.83;;;1.30;;
430;SDS011;202;48.764;9.172;2022-08-07T11:24:04;2.30;;;1.07;;
430;SDS011;202;48.764;9.172;2022-08-07T11:26:38;2.07;;;1.50;;
430;SDS011;202;48.764;9.172;2022-08-07T11:29:15;2.53;;;1.07;;
430;SDS011;202;48.764;9.172;2022-08-07T11:31:48;1.80;;;1.00;;
430;SDS011;202;48.764;9.172;2022-08-07T11:34:19;2.03;;;1.13;;
430;SDS011;202;48.764;9.172;2022-08-07T11:36:56;2.43;;;1.00;;
430;SDS011;202;48.764;9.172;2022-08-07T11:39:38;2.83;;;1.53;;
430;SDS011;202;48.764;9.172;2022-08-07T11:42:16;1.80;;;1.10;;
430;SDS011;202;48.764;9.172;2022-08-07T11:44:52;3.10;;;1.30;;
430;SDS011;202;48.764;9.172;2022-08-07T11:47:36;2.10;;;0.90;;
430;SDS011;202;48.764;9.172;2022-08-07T11:50:15;1.47;;;0.90;;
430;SDS011;202;48.764;9.172;2022-08-07T11:53:01;2.87;;;1.10;;
430;SDS011;202;48.764;9.172;2022-08-07T11:55:44;1.80;;;1.00;;
430;SDS011;202;48.764;9.172;2022-08-07T11:58:29;1.70;;;1.07;;
430;SDS011;202;48.764;9.172;2022-08-07T12:01:15;1.70;;;1.10;;
430;SDS011;202;48.764;9.172;2022-08-07T12:04:00;3.10;;;1.27;;
430;SDS011;202;48.764;9.172;2022-08-07T12:06:44;2.13;;;0.90;;
430;SDS011;202;48.764;9.172;2022-08-07T12:09:15;2.60;;;1.03;;
430;SDS011;202;48.764;9.172;2022-08-07T12:11:51;1.70;;;0.90;;
430;SDS011;202;48.764;9.172;2022-08-07T12:14:26;1.80;;;1.10;;
430;SDS011;202;48.764;9.172;2022-08-07T12:16:59;3.43;;;1.30;;
430;SDS011;202;48.764;9.172;2022-08-07T12:19:41;1.60;;;1.00;;
430;SDS011;202;48.764;9.172;2022-08-07T12:22:31;1.90;;;0.87;;
430;SDS011;202;48.764;9.172;2022-08-07T12:25:12;1.83;;;1.03;;
430;SDS011;202;48.764;9.172;2022-08-07T12:28:08;2.37;;;1.00;;
430;SDS011;202;48.764;9.172;2022-08-07T12:30:43;1.60;;;1.13;;
430;SDS011;202;48.764;9.172;2022-08-07T12:33:16;1.97;;;1.00;;
430;SDS011;202;48.764;9.172;2022-08-07T12:35:47;1.73;;;1.10;;
430;SDS011;202;48.764;9.172;2022-08-07T12:38:16;1.80;;;1.00;;
430;SDS011;202;48.764;9.172;2022-08-07T12:40:47;2.13;;;1.10;;
430;SDS011;202;48.764;9.172;2022-08-07T12:43:18;1.83;;;1.10;;
430;SDS011;202;48.764;9.172;2022-08-07T12:45:48;1.50;;;1.00;;
430;SDS011;202;48.764;9.172;2022-08-07T12:48:28;6.10;;;1.30;;
430;SDS011;202;48.764;9.172;2022-08-07T12:51:07;2.67;;;1.70;;
430;SDS011;202;48.764;9.172;2022-08-07T12:53:39;1.90;;;1.13;;
430;SDS011;202;48.764;9.172;2022-08-07T12:56:15;1.80;;;1.33;;
430;SDS011;202;48.764;9.172;2022-08-07T12:58:50;2.27;;;1.43;;
430;SDS011;202;48.764;9.172;2022-08-07T13:01:21;1.97;;;1.13;;
430;SDS011;202;48.764;9.172;2022-08-07T13:04:03;1.93;;;1.23;;
430;SDS011;202;48.764;9.172;2022-08-07T13:06:45;2.00;;;1.43;;
430;SDS011;202;48.764;9.172;2022-08-07T13:09:42;1.40;;;0.80;;
430;SDS011;202;48.764;9.172;2022-08-07T13:12:25;2.33;;;1.00;;
430;SDS011;202;48.764;9.172;2022-08-07T13:17:48;2.33;;;1.17;;
430;SDS011;202;48.764;9.172;2022-08-07T13:20:30;1.70;;;1.10;;
430;SDS011;202;48.764;9.172;2022-08-07T13:23:08;1.73;;;1.07;;
430;SDS011;202;48.764;9.172;2022-08-07T13:25:42;1.70;;;1.10;;
430;SDS011;202;48.764;9.172;2022-08-07T13:28:13;2.80;;;1.70;;
430;SDS011;202;48.764;9.172;2022-08-07T13:30:47;2.10;;;1.13;;
430;SDS011;202;48.764;9.172;2022-08-07T13:33:23;2.40;;;1.27;;
430;SDS011;202;48.764;9.172;2022-08-07T13:35:56;1.73;;;1.20;;
430;SDS011;202;48.764;9.172;2022-08-07T13:38:30;2.40;;;1.10;;
430;SDS011;202;48.764;9.172;2022-08-07T13:41:10;2.83;;;1.33;;
430;SDS011;202;48.764;9.172;2022-08-07T13:43:43;2.13;;;1.20;;
430;SDS011;202;48.764;9.172;2022-08-07T13:46:13;2.00;;;1.20;;
430;SDS011;202;48.764;9.172;2022-08-07T13:48:44;1.70;;;1.10;;
430;SDS011;202;48.764;9.172;2022-08-07T13:51:16;2.30;;;1.37;;
430;SDS011;202;48.764;9.172;2022-08-07T13:53:48;2.70;;;1.87;;
430;SDS011;202;48.764;9.172;2022-08-07T13:56:19;1.87;;;1.23;;
430;SDS011;202;48.764;9.172;2022-08-07T13:58:49;2.77;;;1.00;;
430;SDS011;202;48.764;9.172;2022-08-07T14:01:28;3.60;;;1.10;;
430;SDS011;202;48.764;9.172;2022-08-07T14:03:59;2.77;;;1.50;;
430;SDS011;202;48.764;9.172;2022-08-07T14:06:34;1.67;;;1.10;;
430;SDS011;202;48.764;9.172;2022-08-07T14:12:02;3.00;;;1.10;;
430;SDS011;202;48.764;9.172;2022-08-07T14:14:50;1.80;;;1.07;;
430;SDS011;202;48.764;9.172;2022-08-07T14:17:55;1.90;;;1.20;;
430;SDS011;202;48.764;9.172;2022-08-07T14:20:48;2.40;;;1.50;;
430;SDS011;202;48.764;9.172;2022-08-07T14:23:38;1.60;;;1.10;;
430;SDS011;202;48.764;9.172;2022-08-07T14:27:35;2.23;;;1.43;;
430;SDS011;202;48.764;9.172;2022-08-07T14:29:31;1.60;;;1.00;;
430;SDS011;202;48.764;9.172;2022-08-07T14:32:12;1.90;;;1.17;;
430;SDS011;202;48.764;9.172;2022-08-07T14:35:18;2.00;;;1.07;;
430;SDS011;202;48.764;9.172;2022-08-07T14:37:50;2.37;;;1.57;;
430;SDS011;202;48.764;9.172;2022-08-07T14:40:25;2.40;;;1.27;;
430;SDS011;202;48.764;9.172;2022-08-07T14:42:58;2.73;;;1.27;;
430;SDS011;202;48.764;9.172;2022-08-07T14:45:42;2.17;;;1.30;;
430;SDS011;202;48.764;9.172;2022-08-07T14:48:19;2.17;;;1.27;;
430;SDS011;202;48.764;9.172;2022-08-07T14:51:17;1.90;;;1.07;;
430;SDS011;202;48.764;9.172;2022-08-07T14:53:59;2.00;;;1.30;;
430;SDS011;202;48.764;9.172;2022-08-07T14:56:42;1.97;;;1.00;;
430;SDS011;202;48.764;9.172;2022-08-07T14:59:32;1.97;;;1.30;;
430;SDS011;202;48.764;9.172;2022-08-07T15:02:13;1.93;;;1.27;;
430;SDS011;202;48.764;9.172;2022-08-07T15:05:01;2.20;;;1.63;;
430;SDS011;202;48.764;9.172;2022-08-07T15:07:45;2.00;;;1.40;;
430;SDS011;202;48.764;9.172;2022-08-07T15:10:18;2.03;;;1.40;;
430;SDS011;202;48.764;9.172;2022-08-07T15:13:07;4.37;;;1.33;;
430;SDS011;202;48.764;9.172;2022-08-07T15:15:46;2.67;;;1.10;;
430;SDS011;202;48.764;9.172;2022-08-07T15:18:29;1.80;;;1.20;;
430;SDS011;202;48.764;9.172;2022-08-07T15:21:22;1.87;;;1.00;;
430;SDS011;202;48.764;9.172;2022-08-07T15:23:59;3.00;;;1.30;;
430;SDS011;202;48.764;9.172;2022-08-07T15:26:42;1.50;;;1.03;;
430;SDS011;202;48.764;9.172;2022-08-07T15:29:18;1.63;;;1.10;;
430;SDS011;202;48.764;9.172;2022-08-07T15:31:50;2.60;;;1.43;;
430;SDS011;202;48.764;9.172;2022-08-07T15:34:38;2.27;;;1.40;;
430;SDS011;202;48.764;9.172;2022-08-07T15:37:20;2.40;;;1.70;;
430;SDS011;202;48.764;9.172;2022-08-07T15:39:56;2.67;;;1.63;;
430;SDS011;202;48.764;9.172;2022-08-07T15:42:45;2.27;;;1.30;;
430;SDS011;202;48.764;9.172;2022-08-07T15:45:35;3.00;;;1.27;;
430;SDS011;202;48.764;9.172;2022-08-07T15:48:38;2.00;;;1.20;;
430;SDS011;202;48.764;9.172;2022-08-07T15:51:13;2.00;;;1.10;;
430;SDS011;202;48.764;9.172;2022-08-07T15:53:45;1.93;;;1.20;;
430;SDS011;202;48.764;9.172;2022-08-07T15:56:36;2.40;;;1.50;;
430;SDS011;202;48.764;9.172;2022-08-07T15:59:09;2.73;;;1.97;;
430;SDS011;202;48.764;9.172;2022-08-07T16:02:08;2.47;;;1.47;;
430;SDS011;202;48.764;9.172;2022-08-07T16:04:42;1.80;;;1.10;;
430;SDS011;202;48.764;9.172;2022-08-07T16:07:23;2.07;;;1.27;;
430;SDS011;202;48.764;9.172;2022-08-07T16:10:10;2.10;;;1.33;;
430;SDS011;202;48.764;9.172;2022-08-07T16:13:00;1.67;;;1.17;;
430;SDS011;202;48.764;9.172;2022-08-07T16:15:59;2.07;;;1.53;;
430;SDS011;202;48.764;9.172;2022-08-07T16:18:53;1.60;;;1.30;;
430;SDS011;202;48.764;9.172;2022-08-07T16:21:45;2.53;;;1.53;;
430;SDS011;202;48.764;9.172;2022-08-07T16:24:27;2.20;;;1.30;;
430;SDS011;202;48.764;9.172;2022-08-07T16:27:05;4.47;;;1.13;;
430;SDS011;202;48.764;9.172;2022-08-07T16:29:46;2.00;;;1.43;;
430;SDS011;202;48.764;9.172;2022-08-07T16:32:29;2.40;;;1.80;;
430;SDS011;202;48.764;9.172;2022-08-07T16:35:07;3.40;;;1.73;;
430;SDS011;202;48.764;9.172;2022-08-07T16:44:14;2.40;;;1.60;;
430;SDS011;202;48.764;9.172;2022-08-07T16:56:19;2.77;;;1.67;;
430;SDS011;202;48.764;9.172;2022-08-07T16:59:00;3.50;;;2.03;;
430;SDS011;202;48.764;9.172;2022-08-07T17:13:55;1.90;;;1.50;;
430;SDS011;202;48.764;9.172;2022-08-07T17:16:46;2.53;;;1.50;;
430;SDS011;202;48.764;9.172;2022-08-07T17:19:20;2.10;;;1.70;;
430;SDS011;202;48.764;9.172;2022-08-07T17:22:07;2.00;;;1.30;;
430;SDS011;202;48.764;9.172;2022-08-07T17:25:05;2.47;;;2.10;;